Time;durP1;ratioP1;P1;durP2;ratioP2;P2;SDS_P1;SDS_P2;PMS_P1;PMS_P2;Temp;Humidity;BMP_temperature;BMP_pressure;BME280_temperature;BME280_humidity;BME280_pressure;Samples;Min_cycle;Max_cycle;Signal;HPM_P1;HPM_P2
2022/12/30 00:01:23;;;;;;;17.20;12.15;;;;;;;3.90;59.39;100723.64;1721654;82;21031;-69
2022/12/30 00:03:49;;;;;;;13.22;5.33;;;;;;;3.85;59.52;100718.25;1717924;83;21517;-70
2022/12/30 00:06:19;;;;;;;9.60;5.12;;;;;;;3.83;59.58;100712.28;1725903;82;22321;-70
2022/12/30 00:08:50;;;;;;;12.82;4.95;;;;;;;3.79;59.74;100710.28;1721757;82;22303;-71
2022/12/30 00:11:32;;;;;;;12.03;5.70;;;;;;;3.80;59.77;100715.02;1726863;82;21101;-71
2022/12/30 00:34:12;;;;;;;14.07;6.22;;;;;;;3.63;60.46;100710.59;1736489;82;21270;-70
2022/12/30 00:36:39;;;;;;;16.65;11.95;;;;;;;3.64;60.46;100714.89;1722330;82;21060;-71
2022/12/30 00:39:06;;;;;;;11.83;6.17;;;;;;;3.64;60.48;100717.03;1725453;82;21054;-71
2022/12/30 00:44:19;;;;;;;13.60;5.30;;;;;;;3.72;60.39;100711.48;1713377;82;21082;-70
2022/12/30 00:46:46;;;;;;;11.43;6.37;;;;;;;3.74;60.30;100712.72;1726652;81;21250;-71
2022/12/30 00:57:33;;;;;;;11.12;4.60;;;;;;;3.78;60.12;100715.09;1729145;82;21093;-69
2022/12/30 00:59:57;;;;;;;11.40;6.12;;;;;;;3.78;60.12;100714.25;1731216;82;21117;-71
2022/12/30 01:02:23;;;;;;;12.00;5.45;;;;;;;3.78;60.10;100709.05;1722090;82;21090;-71
2022/12/30 01:04:50;;;;;;;10.65;5.47;;;;;;;3.80;60.11;100713.28;1729192;82;21058;-72
2022/12/30 01:07:16;;;;;;;13.60;6.70;;;;;;;3.84;60.06;100706.16;1724141;82;21043;-72
2022/12/30 01:09:44;;;;;;;14.18;6.47;;;;;;;3.86;60.01;100705.63;1741457;82;21064;-71
2022/12/30 01:12:11;;;;;;;12.90;6.25;;;;;;;3.89;59.92;100705.02;1727554;82;21348;-69
2022/12/30 01:14:45;;;;;;;17.80;11.53;;;;;;;3.88;59.85;100699.45;1718214;82;21107;-69
2022/12/30 01:17:14;;;;;;;11.88;6.20;;;;;;;3.89;59.82;100699.81;1740641;81;21157;-70
2022/12/30 01:19:41;;;;;;;17.05;12.10;;;;;;;3.89;59.78;100702.89;1738784;82;21054;-71
2022/12/30 01:22:08;;;;;;;15.23;5.55;;;;;;;3.88;59.78;100699.45;1730433;81;21063;-70
2022/12/30 01:24:35;;;;;;;11.70;5.20;;;;;;;3.88;59.77;100703.36;1726664;82;21257;-70
2022/12/30 01:27:02;;;;;;;10.38;5.92;;;;;;;3.87;59.80;100695.61;1730591;82;21039;-70
2022/12/30 01:29:34;;;;;;;17.05;12.40;;;;;;;3.86;59.85;100690.84;1726521;82;21551;-70
2022/12/30 01:32:00;;;;;;;14.98;6.65;;;;;;;3.88;59.82;100694.24;1739111;82;21058;-69
2022/12/30 01:34:27;;;;;;;12.47;6.05;;;;;;;3.88;59.79;100692.08;1723565;82;21102;-71
2022/12/30 01:36:54;;;;;;;11.55;6.17;;;;;;;3.87;59.77;100687.34;1729805;82;21700;-72
2022/12/30 01:39:20;;;;;;;16.15;6.37;;;;;;;3.87;59.75;100689.94;1720021;82;21054;-71
2022/12/30 01:41:47;;;;;;;11.93;5.95;;;;;;;3.85;59.83;100689.61;1733586;82;21150;-73
2022/12/30 01:45:09;;;;;;;18.95;12.37;;;;;;;3.83;59.86;100692.75;1721245;82;21064;-73
2022/12/30 01:47:53;;;;;;;19.10;12.20;;;;;;;3.82;59.90;100694.98;1750839;80;21063;-71
2022/12/30 01:50:33;;;;;;;11.00;4.58;;;;;;;3.79;59.96;100691.22;1751249;80;21143;-72
2022/12/30 01:53:13;;;;;;;11.55;4.80;;;;;;;3.77;60.06;100701.70;1746846;80;21074;-73
2022/12/30 01:55:45;;;;;;;14.80;6.87;;;;;;;3.75;60.13;100692.27;1747417;80;21476;-72
2022/12/30 01:58:16;;;;;;;13.22;6.08;;;;;;;3.72;60.22;100689.36;1742460;82;21320;-72
2022/12/30 02:00:42;;;;;;;14.35;6.55;;;;;;;3.70;60.28;100690.73;1751943;80;21750;-72
2022/12/30 02:03:09;;;;;;;12.15;6.00;;;;;;;3.70;60.29;100688.59;1742500;82;21895;-69
2022/12/30 02:05:37;;;;;;;9.85;5.05;;;;;;;3.67;60.39;100690.03;1747085;80;21980;-70
2022/12/30 02:08:14;;;;;;;15.60;11.95;;;;;;;3.69;60.39;100682.99;1754463;80;21092;-70
2022/12/30 02:10:49;;;;;;;;;;;;;;;3.69;60.39;100681.69;1700410;82;21062;-69
2022/12/30 02:13:17;;;;;;;9.83;5.17;;;;;;;3.70;60.35;100681.63;1699996;84;20212;-70
2022/12/30 02:16:18;;;;;;;12.63;5.87;;;;;;;3.76;60.26;100680.48;1691076;84;21243;-71
2022/12/30 02:19:12;;;;;;;11.10;5.33;;;;;;;3.85;60.15;100673.56;1758721;80;21058;-70
2022/12/30 02:21:56;;;;;;;13.62;5.20;;;;;;;3.95;60.01;100671.80;1752752;80;21081;-70
2022/12/30 02:25:06;;;;;;;10.80;5.28;;;;;;;3.97;59.97;100676.03;1744454;80;20999;-71
2022/12/30 02:28:29;;;;;;;11.50;5.00;;;;;;;3.98;59.90;100683.38;1704621;82;21050;-70
2022/12/30 02:31:36;;;;;;;15.45;11.20;;;;;;;3.94;59.90;100671.44;1746808;80;21158;-71
2022/12/30 02:34:20;;;;;;;9.35;4.72;;;;;;;3.90;59.91;100670.27;1719341;82;21588;-70
2022/12/30 02:37:13;;;;;;;14.10;6.12;;;;;;;3.87;59.94;100672.19;1749013;80;21038;-70
2022/12/30 02:40:05;;;;;;;16.23;7.40;;;;;;;3.84;60.06;100666.66;1757104;80;21101;-70
2022/12/30 02:45:35;;;;;;;14.65;5.25;;;;;;;3.84;60.11;100667.95;1754475;80;21262;-71
2022/12/30 02:48:07;;;;;;;16.57;6.87;;;;;;;3.83;60.11;100672.79;1750179;80;21099;-71
2022/12/30 02:53:23;;;;;;;16.23;12.00;;;;;;;3.83;60.12;100659.78;1755257;80;21092;-71
2022/12/30 02:55:49;;;;;;;15.90;6.40;;;;;;;3.81;60.13;100665.48;1750050;80;21086;-70
2022/12/30 02:58:16;;;;;;;13.70;6.12;;;;;;;3.82;60.20;100665.89;1757957;80;21242;-71
2022/12/30 03:04:48;;;;;;;17.10;7.10;;;;;;;3.84;60.19;100665.81;1750461;80;21048;-70
2022/12/30 03:07:35;;;;;;;12.78;5.97;;;;;;;3.83;60.24;100675.83;1709701;80;21131;-71
2022/12/30 03:13:24;;;;;;;12.05;6.35;;;;;;;3.82;60.38;100668.95;1748712;80;21165;-71
2022/12/30 03:16:23;;;;;;;12.95;5.92;;;;;;;3.84;60.41;100667.12;1746947;80;21067;-70
2022/12/30 03:18:49;;;;;;;14.20;7.05;;;;;;;3.87;60.38;100669.11;1732142;80;21080;-71
2022/12/30 03:21:16;;;;;;;13.72;8.05;;;;;;;3.91;60.40;100675.02;1751676;80;21019;-71
2022/12/30 03:29:17;;;;;;;16.85;7.03;;;;;;;3.96;60.43;100687.35;1742557;82;21026;-70
2022/12/30 03:31:43;;;;;;;11.80;6.80;;;;;;;3.99;60.39;100685.08;1746459;80;21072;-69
2022/12/30 03:34:10;;;;;;;12.47;7.83;;;;;;;4.02;60.30;100690.14;1748603;80;21082;-69
2022/12/30 03:36:39;;;;;;;19.32;13.58;;;;;;;4.03;60.43;100690.51;1759356;80;21042;-70
2022/12/30 03:39:20;;;;;;;17.98;12.88;;;;;;;4.07;60.27;100692.90;1747907;80;21210;-70
2022/12/30 03:41:48;;;;;;;11.90;6.03;;;;;;;4.10;60.19;100697.10;1755104;80;21075;-69
2022/12/30 03:44:17;;;;;;;20.10;8.00;;;;;;;4.13;60.21;100690.92;1745943;80;21043;-69
2022/12/30 03:46:44;;;;;;;14.55;6.97;;;;;;;4.13;60.15;100694.36;1753336;80;21051;-70
2022/12/30 03:49:11;;;;;;;14.50;8.08;;;;;;;4.13;60.08;100687.84;1750593;80;21486;-70
2022/12/30 03:51:38;;;;;;;21.68;13.78;;;;;;;4.13;60.11;100690.45;1756821;80;21142;-70
2022/12/30 03:54:04;;;;;;;21.48;8.65;;;;;;;4.12;60.18;100693.98;1748769;80;21081;-70
2022/12/30 03:56:31;;;;;;;12.53;5.70;;;;;;;4.14;60.18;100689.55;1746132;80;21533;-69
2022/12/30 03:58:57;;;;;;;12.10;5.58;;;;;;;4.24;59.95;100697.77;1747061;80;21096;-71
2022/12/30 04:01:24;;;;;;;20.25;12.70;;;;;;;4.32;59.79;100701.27;1756392;80;21074;-70
2022/12/30 04:03:50;;;;;;;13.40;6.58;;;;;;;4.36;59.71;100703.66;1746821;80;21238;-70
2022/12/30 04:06:17;;;;;;;19.75;12.47;;;;;;;4.39;59.73;100703.98;1746000;80;21106;-70
2022/12/30 04:08:44;;;;;;;16.90;13.05;;;;;;;4.40;59.64;100705.19;1750635;80;21784;-71
2022/12/30 04:11:10;;;;;;;10.88;5.67;;;;;;;4.41;59.56;100704.75;1744537;80;21123;-72
2022/12/30 04:13:37;;;;;;;9.68;6.05;;;;;;;4.41;59.57;100700.84;1751391;80;21079;-71
2022/12/30 04:16:05;;;;;;;19.92;12.20;;;;;;;4.41;59.49;100703.45;1752012;80;21252;-71
2022/12/30 04:18:31;;;;;;;14.03;6.12;;;;;;;4.37;59.61;100700.59;1752551;80;21469;-71
2022/12/30 04:20:58;;;;;;;18.73;12.98;;;;;;;4.34;59.72;100704.20;1748318;80;21500;-71
2022/12/30 04:23:26;;;;;;;11.73;5.92;;;;;;;4.33;59.71;100708.19;1746685;80;21108;-71
2022/12/30 04:25:52;;;;;;;13.80;7.55;;;;;;;4.31;59.71;100700.44;1753219;80;21074;-71
2022/12/30 04:28:19;;;;;;;16.80;12.37;;;;;;;4.28;59.77;100699.28;1748411;80;21240;-71
2022/12/30 04:30:49;;;;;;;11.20;5.72;;;;;;;4.27;59.72;100703.66;1750343;80;21064;-71
2022/12/30 04:33:16;;;;;;;14.58;7.33;;;;;;;4.24;59.73;100704.27;1745199;80;21576;-71
2022/12/30 04:35:43;;;;;;;19.95;12.53;;;;;;;4.20;59.78;100703.58;1715713;82;21515;-71
2022/12/30 04:38:09;;;;;;;14.95;6.35;;;;;;;4.17;59.89;100697.22;1750220;80;21008;-70
2022/12/30 04:40:36;;;;;;;17.62;13.35;;;;;;;4.18;59.91;100701.95;1748320;80;21235;-70
2022/12/30 04:43:02;;;;;;;15.23;7.37;;;;;;;4.16;59.97;100703.80;1748579;80;21052;-70
2022/12/30 04:45:30;;;;;;;13.22;6.78;;;;;;;4.12;60.05;100695.29;1747934;80;21122;-71
2022/12/30 04:47:57;;;;;;;14.65;7.92;;;;;;;4.12;60.08;100704.41;1717083;82;21099;-71
2022/12/30 04:50:23;;;;;;;15.58;8.23;;;;;;;4.12;60.16;100704.41;1752201;80;21015;-71
2022/12/30 04:52:50;;;;;;;13.03;6.80;;;;;;;4.12;60.23;100701.80;1753402;80;21229;-70
2022/12/30 04:55:17;;;;;;;22.95;14.20;;;;;;;4.13;60.15;100702.64;1744546;80;21000;-71
2022/12/30 04:57:43;;;;;;;19.80;13.48;;;;;;;4.12;60.26;100705.70;1743722;80;21043;-71
2022/12/30 05:00:12;;;;;;;19.42;13.98;;;;;;;4.13;60.24;100700.87;1753247;80;21061;-71
2022/12/30 05:02:38;;;;;;;21.27;13.70;;;;;;;4.13;60.22;100707.38;1751436;80;21477;-71
2022/12/30 05:05:06;;;;;;;12.35;6.17;;;;;;;4.14;60.27;100705.17;1746201;80;21257;-70
2022/12/30 05:07:34;;;;;;;12.05;5.78;;;;;;;4.13;60.23;100705.24;1747920;80;21035;-70
2022/12/30 05:10:01;;;;;;;11.08;6.28;;;;;;;4.12;60.27;100705.70;1744052;80;21059;-70
2022/12/30 05:12:27;;;;;;;15.70;6.80;;;;;;;4.13;60.24;100702.64;1754270;80;21031;-70
2022/12/30 05:14:54;;;;;;;18.45;12.95;;;;;;;4.19;60.14;100701.05;1754797;80;21062;-71
2022/12/30 05:17:21;;;;;;;13.60;6.33;;;;;;;4.23;60.14;100696.89;1750458;80;21455;-71
2022/12/30 05:19:47;;;;;;;17.37;12.88;;;;;;;4.31;60.18;100699.61;1750747;80;21059;-70
2022/12/30 05:22:15;;;;;;;17.92;12.88;;;;;;;4.33;60.13;100699.07;1755954;80;21320;-71
2022/12/30 05:27:26;;;;;;;12.90;5.60;;;;;;;4.35;60.08;100691.55;1747436;80;21005;-70
2022/12/30 05:29:54;;;;;;;19.57;13.25;;;;;;;4.34;59.90;100691.62;1750801;80;21059;-70
2022/12/30 05:32:21;;;;;;;22.45;13.35;;;;;;;4.28;59.93;100687.56;1766919;80;21058;-70
2022/12/30 05:34:47;;;;;;;12.65;6.50;;;;;;;4.22;59.95;100690.02;1745742;80;21098;-70
2022/12/30 05:37:14;;;;;;;13.43;5.92;;;;;;;4.16;60.10;100691.61;1754331;80;21011;-70
2022/12/30 05:39:40;;;;;;;12.58;6.40;;;;;;;4.12;60.24;100688.78;1766741;80;21149;-70
2022/12/30 05:42:07;;;;;;;19.80;14.60;;;;;;;4.05;60.32;100688.23;1700552;82;21262;-72
2022/12/30 05:44:33;;;;;;;19.75;14.50;;;;;;;4.04;60.44;100698.72;1746723;80;21017;-70
2022/12/30 05:47:00;;;;;;;18.02;7.83;;;;;;;4.01;60.50;100697.09;1756198;80;21459;-70
2022/12/30 05:49:26;;;;;;;12.82;6.15;;;;;;;3.98;60.65;100695.09;1761903;80;21055;-71
2022/12/30 05:55:11;;;;;;;18.67;13.88;;;;;;;3.77;61.36;100693.89;1864658;75;22701;-81
2022/12/30 05:57:38;;;;;;;15.55;7.45;;;;;;;3.97;60.70;100692.09;1840294;77;20938;-81
2022/12/30 06:00:07;;;;;;;11.63;5.10;;;;;;;3.96;60.73;100698.23;1833112;77;21181;-81
2022/12/30 06:02:34;;;;;;;22.87;15.10;;;;;;;3.91;60.79;100702.35;1836978;77;20967;-81
2022/12/30 06:05:01;;;;;;;19.40;14.07;;;;;;;3.89;60.89;100699.81;1832666;77;21038;-82
2022/12/30 06:07:28;;;;;;;17.52;7.72;;;;;;;3.87;60.92;100697.75;1833024;77;20990;-81
2022/12/30 06:09:55;;;;;;;20.25;14.95;;;;;;;3.87;60.97;100713.37;1841467;77;20967;-80
2022/12/30 06:12:21;;;;;;;14.53;6.50;;;;;;;3.86;61.00;100712.14;1834934;77;21092;-80
2022/12/30 06:14:48;;;;;;;12.58;6.37;;;;;;;3.88;61.01;100712.47;1827443;77;20990;-81
2022/12/30 06:17:14;;;;;;;16.12;6.83;;;;;;;3.97;60.87;100716.39;1840076;78;20993;-81
2022/12/30 06:19:41;;;;;;;10.00;5.45;;;;;;;4.07;60.74;100715.50;1822533;77;20975;-81
2022/12/30 06:22:08;;;;;;;13.05;6.83;;;;;;;4.14;60.64;100712.15;1778156;80;20979;-81
2022/12/30 06:24:34;;;;;;;18.67;14.60;;;;;;;4.16;60.66;100711.61;1772267;78;21167;-80
2022/12/30 06:27:03;;;;;;;21.07;15.05;;;;;;;4.18;60.64;100713.67;1778018;79;21058;-80
2022/12/30 06:29:29;;;;;;;14.78;6.92;;;;;;;4.20;60.58;100719.64;1799999;79;21101;-81
2022/12/30 06:31:56;;;;;;;14.47;8.33;;;;;;;4.21;60.51;100723.95;1801867;79;21348;-81
2022/12/30 06:34:22;;;;;;;14.73;8.03;;;;;;;4.19;60.52;100735.74;1789882;78;21097;-80
2022/12/30 06:36:48;;;;;;;13.83;8.00;;;;;;;4.17;60.48;100731.08;1822064;78;21213;-81
2022/12/30 06:39:15;;;;;;;18.73;14.35;;;;;;;4.15;60.50;100734.19;1789961;78;21062;-80
2022/12/30 06:41:41;;;;;;;15.43;6.97;;;;;;;4.14;60.55;100737.73;1822016;78;21622;-81
2022/12/30 06:44:08;;;;;;;20.97;15.83;;;;;;;4.19;60.54;100745.33;1819590;78;20975;-81
2022/12/30 06:46:35;;;;;;;12.65;5.92;;;;;;;4.20;60.55;100743.95;1817815;78;21077;-81
2022/12/30 06:49:01;;;;;;;29.45;21.00;;;;;;;4.27;60.50;100747.11;1769640;78;21195;-81
2022/12/30 06:51:28;;;;;;;28.17;20.90;;;;;;;4.30;60.46;100741.73;1801906;78;21003;-81
2022/12/30 06:53:54;;;;;;;14.90;7.62;;;;;;;4.36;60.40;100744.52;1801600;78;20987;-81
2022/12/30 06:56:21;;;;;;;21.40;15.10;;;;;;;4.36;60.29;100745.35;1764583;80;21043;-81
2022/12/30 06:58:47;;;;;;;12.90;7.17;;;;;;;4.40;60.29;100749.95;1782532;79;20984;-80
2022/12/30 07:01:14;;;;;;;16.05;7.58;;;;;;;4.44;60.21;100750.20;1795811;79;21713;-80
2022/12/30 07:03:40;;;;;;;22.00;14.68;;;;;;;4.48;60.21;100752.20;1762613;79;21478;-81
2022/12/30 07:06:07;;;;;;;14.47;7.67;;;;;;;4.53;60.18;100760.63;1759050;81;21497;-81
2022/12/30 07:08:35;;;;;;;11.93;7.42;;;;;;;4.60;59.93;100759.41;1758743;80;21054;-81
2022/12/30 07:11:02;;;;;;;12.53;6.85;;;;;;;4.71;59.76;100758.86;1777509;80;21038;-81
2022/12/30 07:13:28;;;;;;;11.45;6.40;;;;;;;4.83;59.72;100755.67;1833937;78;21181;-82
2022/12/30 07:15:55;;;;;;;34.43;16.42;;;;;;;5.00;59.62;100761.33;1844855;76;21031;-82
2022/12/30 07:18:21;;;;;;;34.05;15.88;;;;;;;5.15;59.19;100764.92;1842492;77;21034;-81
2022/12/30 07:20:48;;;;;;;20.00;8.40;;;;;;;5.25;58.92;100764.00;1807142;77;21031;-81
2022/12/30 07:23:15;;;;;;;30.32;16.17;;;;;;;5.28;58.46;100760.77;1810006;77;20988;-82
2022/12/30 07:25:46;;;;;;;27.67;16.80;;;;;;;5.29;58.27;100762.44;1834372;77;21188;-82
2022/12/30 07:28:13;;;;;;;23.67;16.07;;;;;;;5.31;58.31;100761.05;1807305;79;21525;-81
2022/12/30 07:30:40;;;;;;;12.58;6.72;;;;;;;5.31;57.92;100765.83;1823739;77;20996;-81
2022/12/30 07:33:10;;;;;;;19.60;15.13;;;;;;;5.26;58.00;100760.01;1828128;78;21015;-81
2022/12/30 07:35:36;;;;;;;20.30;14.40;;;;;;;5.26;58.08;100763.92;1830270;77;21051;-81
2022/12/30 07:38:03;;;;;;;14.23;7.00;;;;;;;5.27;58.07;100759.07;1823590;77;21187;-81
2022/12/30 07:40:29;;;;;;;21.73;14.38;;;;;;;5.28;58.06;100764.68;1838685;77;20988;-81
2022/12/30 07:42:56;;;;;;;10.70;6.15;;;;;;;5.28;58.15;100767.29;1820171;77;20999;-81
2022/12/30 07:45:23;;;;;;;19.35;14.75;;;;;;;5.34;58.08;100766.95;1829939;77;20995;-81
2022/12/30 07:47:50;;;;;;;20.97;15.40;;;;;;;5.38;58.09;100767.19;1828724;77;21078;-81
2022/12/30 07:50:17;;;;;;;23.52;15.72;;;;;;;5.43;57.82;100769.56;1822942;77;21254;-81
2022/12/30 07:52:44;;;;;;;23.18;15.50;;;;;;;5.45;57.77;100770.32;1820259;77;21035;-81
2022/12/30 07:55:10;;;;;;;14.63;7.75;;;;;;;5.49;57.60;100768.39;1800299;77;21116;-82
2022/12/30 07:57:37;;;;;;;23.80;17.50;;;;;;;5.53;57.59;100771.20;1785475;79;21082;-82
2022/12/30 08:00:05;;;;;;;21.97;15.45;;;;;;;5.58;57.61;100780.94;1773581;79;21525;-81
2022/12/30 08:02:34;;;;;;;24.65;15.40;;;;;;;5.62;57.45;100783.78;1786021;79;21717;-81
2022/12/30 08:05:00;;;;;;;22.77;16.20;;;;;;;5.67;57.57;100778.33;1783121;79;21069;-81
2022/12/30 08:07:28;;;;;;;23.02;15.78;;;;;;;5.74;57.57;100779.69;1786935;79;21037;-82
2022/12/30 08:09:55;;;;;;;24.65;15.25;;;;;;;5.79;57.29;100782.05;1783529;78;21042;-82
2022/12/30 08:12:21;;;;;;;14.25;6.70;;;;;;;5.88;57.21;100772.41;1784048;78;21077;-83
2022/12/30 08:14:48;;;;;;;13.20;7.37;;;;;;;6.03;56.85;100774.68;1784402;79;21215;-82
2022/12/30 08:17:14;;;;;;;20.92;15.32;;;;;;;6.13;56.55;100767.55;1784999;78;20995;-82
2022/12/30 08:19:41;;;;;;;19.90;14.68;;;;;;;6.22;56.40;100764.05;1791181;79;20976;-81
2022/12/30 08:22:07;;;;;;;14.75;7.45;;;;;;;6.26;56.29;100765.58;1782661;79;21033;-81
2022/12/30 08:24:34;;;;;;;23.60;15.95;;;;;;;6.32;56.36;100771.30;1796325;78;20956;-81
2022/12/30 08:27:01;;;;;;;22.80;14.93;;;;;;;6.34;56.35;100765.99;1793864;78;21058;-82
2022/12/30 08:29:27;;;;;;;20.37;15.18;;;;;;;6.38;56.10;100765.35;1788333;78;20983;-84
2022/12/30 08:31:58;;;;;;;19.87;13.48;;;;;;;6.40;56.05;100763.02;1784604;78;21049;-82
2022/12/30 08:34:25;;;;;;;20.90;14.73;;;;;;;6.42;55.97;100766.41;1776253;78;21454;-82
2022/12/30 08:36:51;;;;;;;18.07;14.63;;;;;;;6.42;56.02;100766.41;1776010;79;20991;-82
2022/12/30 08:39:18;;;;;;;17.35;8.10;;;;;;;6.45;56.16;100758.36;1787247;79;21207;-81
2022/12/30 08:41:46;;;;;;;21.68;15.93;;;;;;;6.48;56.10;100756.05;1780917;79;21036;-82
2022/12/30 08:44:13;;;;;;;19.37;14.80;;;;;;;6.47;56.00;100753.91;1784417;79;20967;-83
2022/12/30 08:46:39;;;;;;;14.95;7.95;;;;;;;6.47;55.82;100758.28;1782959;79;21663;-81
2022/12/30 08:49:06;;;;;;;21.30;14.38;;;;;;;6.46;55.92;100767.91;1780938;79;21570;-82
2022/12/30 08:51:33;;;;;;;21.93;15.38;;;;;;;6.46;55.79;100771.83;1781967;79;21827;-82
2022/12/30 08:54:00;;;;;;;21.23;15.43;;;;;;;6.44;55.83;100771.52;1792077;78;21058;-81
2022/12/30 08:56:29;;;;;;;22.07;16.32;;;;;;;6.45;56.04;100762.76;1787176;79;21544;-82
2022/12/30 08:58:56;;;;;;;16.02;8.80;;;;;;;6.45;56.20;100760.98;1780607;79;21017;-82
2022/12/30 09:01:33;;;;;;;27.52;16.40;;;;;;;6.47;56.36;100759.14;1781826;79;21126;-82
2022/12/30 09:03:59;;;;;;;14.10;8.23;;;;;;;6.52;56.27;100754.94;1780598;79;21861;-81
2022/12/30 09:06:29;;;;;;;20.68;14.55;;;;;;;6.57;56.27;100769.06;1778306;80;21001;-82
2022/12/30 09:08:57;;;;;;;23.85;17.23;;;;;;;6.58;56.04;100770.28;1778081;79;21066;-81
2022/12/30 09:11:29;;;;;;;22.45;16.57;;;;;;;6.58;56.12;100770.28;1786686;78;21078;-82
2022/12/30 09:13:56;;;;;;;22.70;15.43;;;;;;;6.56;56.22;100773.45;1777466;79;21435;-81
2022/12/30 09:16:23;;;;;;;23.47;15.83;;;;;;;6.55;56.07;100779.61;1779114;79;21512;-82
2022/12/30 09:18:50;;;;;;;20.92;15.20;;;;;;;6.54;55.98;100774.46;1779474;79;21043;-82
2022/12/30 09:21:17;;;;;;;24.35;17.17;;;;;;;6.51;56.11;100768.48;1779038;79;21011;-82
2022/12/30 09:23:45;;;;;;;20.77;15.72;;;;;;;6.56;56.21;100781.77;1786735;79;21043;-82
2022/12/30 09:26:17;;;;;;;21.27;15.75;;;;;;;6.57;55.96;100770.38;1785785;79;21029;-81
2022/12/30 09:28:44;;;;;;;21.95;15.90;;;;;;;6.55;55.86;100765.70;1779536;79;21203;-82
2022/12/30 09:31:11;;;;;;;18.80;14.75;;;;;;;6.56;55.97;100771.31;1780845;78;21005;-82
2022/12/30 09:33:38;;;;;;;18.27;14.73;;;;;;;6.58;55.92;100768.14;1779921;79;21127;-82
2022/12/30 09:36:07;;;;;;;25.77;15.38;;;;;;;6.61;55.93;100770.59;1775069;79;20992;-82
2022/12/30 09:38:35;;;;;;;20.37;14.95;;;;;;;6.64;55.90;100767.77;1782456;79;21021;-82
2022/12/30 09:44:40;;;;;;;25.00;16.42;;;;;;;6.77;55.80;100753.53;1781118;79;21551;-82
2022/12/30 09:47:26;;;;;;;23.40;16.20;;;;;;;6.87;55.46;100755.52;1778808;79;21051;-82
2022/12/30 09:50:08;;;;;;;22.05;15.60;;;;;;;6.99;55.23;100757.04;1785080;79;21029;-82
2022/12/30 09:53:01;;;;;;;21.02;14.70;;;;;;;7.15;55.17;100747.34;1780406;79;21074;-82
2022/12/30 09:55:35;;;;;;;21.10;14.73;;;;;;;7.33;55.05;100756.33;1811814;77;21155;-82
2022/12/30 09:58:06;;;;;;;17.95;14.60;;;;;;;7.47;54.41;100739.80;1787664;79;21035;-82
2022/12/30 10:00:34;;;;;;;18.87;13.25;;;;;;;7.59;53.99;100741.17;1775199;79;21489;-82
2022/12/30 10:04:43;;;;;;;22.13;14.60;;;;;;;7.63;54.16;100732.20;1794989;78;23191;-63
2022/12/30 10:07:43;;;;;;;19.55;14.05;;;;;;;7.85;53.90;100732.18;1771479;78;21673;-61
2022/12/30 10:10:21;;;;;;;18.02;7.58;;;;;;;7.97;53.73;100724.02;1774383;79;21790;-62
2022/12/30 10:13:00;;;;;;;19.12;13.22;;;;;;;8.08;53.23;100721.52;1755967;81;22292;-62
2022/12/30 10:15:54;;;;;;;20.85;13.22;;;;;;;8.16;53.00;100722.35;1760797;80;21035;-62
2022/12/30 10:19:05;;;;;;;21.35;13.72;;;;;;;8.23;52.82;100713.62;1771456;80;21053;-63
2022/12/30 10:21:55;;;;;;;22.55;14.28;;;;;;;8.28;52.96;100712.38;1765452;80;21453;-62
2022/12/30 10:25:02;;;;;;;17.35;13.65;;;;;;;8.43;53.28;100717.59;1776579;80;21273;-62
2022/12/30 10:27:48;;;;;;;19.98;13.45;;;;;;;8.62;52.82;100711.97;1709513;81;21094;-63
2022/12/30 10:30:24;;;;;;;20.90;14.00;;;;;;;8.80;52.45;100717.77;1708209;83;21038;-63
2022/12/30 10:32:59;;;;;;;19.65;13.25;;;;;;;8.90;51.96;100722.28;1706646;83;21046;-63
2022/12/30 10:35:29;;;;;;;18.75;13.68;;;;;;;8.94;51.81;100712.42;1712832;83;21055;-65
2022/12/30 10:38:17;;;;;;;20.68;13.80;;;;;;;8.96;51.71;100705.30;1721264;82;21253;-64
2022/12/30 10:41:01;;;;;;;17.77;12.53;;;;;;;9.02;51.73;100706.17;1703176;83;21130;-65
2022/12/30 10:43:39;;;;;;;17.23;13.38;;;;;;;9.05;51.70;100705.97;1706302;83;20991;-63
2022/12/30 10:46:31;;;;;;;18.30;13.80;;;;;;;9.10;51.40;100698.63;1713337;81;21548;-61
2022/12/30 10:49:37;;;;;;;21.20;14.40;;;;;;;9.10;51.05;100697.31;1699929;83;21024;-61
2022/12/30 10:52:03;;;;;;;21.20;13.95;;;;;;;9.07;51.03;100693.58;1712841;83;21254;-61
2022/12/30 10:54:30;;;;;;;19.05;13.43;;;;;;;9.00;50.96;100691.02;1718504;81;21076;-62
2022/12/30 10:56:57;;;;;;;18.92;13.60;;;;;;;8.96;51.09;100684.76;1714090;83;21043;-62
2022/12/30 10:59:25;;;;;;;18.60;13.65;;;;;;;8.92;51.16;100684.13;1701660;83;21074;-61
2022/12/30 11:02:13;;;;;;;19.15;14.43;;;;;;;8.92;51.33;100682.82;1698473;83;21035;-61
2022/12/30 11:04:41;;;;;;;20.05;13.95;;;;;;;8.96;51.43;100689.56;1715236;82;21110;-62
2022/12/30 11:07:13;;;;;;;17.55;13.32;;;;;;;9.01;51.56;100690.08;1711325;83;21078;-61
2022/12/30 11:09:41;;;;;;;21.23;14.30;;;;;;;9.06;51.54;100686.66;1746030;80;21004;-61
2022/12/30 11:15:22;;;;;;;17.00;12.75;;;;;;;9.13;51.35;100685.77;1756863;80;21264;-62
2022/12/30 11:17:57;;;;;;;18.35;13.70;;;;;;;9.22;51.04;100686.91;1742739;82;21248;-61
2022/12/30 11:20:36;;;;;;;19.02;13.25;;;;;;;9.24;50.86;100680.59;1742648;82;21086;-60
2022/12/30 11:23:07;;;;;;;18.60;14.10;;;;;;;9.26;51.04;100682.66;1742280;82;21038;-61
2022/12/30 11:25:37;;;;;;;17.10;13.20;;;;;;;9.29;50.59;100688.16;1741399;80;21429;-63
2022/12/30 11:28:14;;;;;;;18.15;12.95;;;;;;;9.26;50.67;100690.54;1771148;80;21611;-63
2022/12/30 11:31:02;;;;;;;18.52;13.15;;;;;;;9.26;50.65;100685.28;1750753;80;21204;-63
2022/12/30 11:33:47;;;;;;;19.10;13.20;;;;;;;9.28;50.77;100683.88;1754481;80;21090;-63
2022/12/30 11:36:33;;;;;;;19.48;13.55;;;;;;;9.34;50.79;100680.80;1764763;80;21020;-65
2022/12/30 11:39:09;;;;;;;;;;;;;;;9.38;50.67;100680.10;1759040;80;21063;-62
2022/12/30 11:41:57;;;;;;;12.70;8.93;;;;;;;9.38;50.36;100685.35;1742731;82;20135;-62
2022/12/30 11:44:29;;;;;;;17.07;12.45;;;;;;;9.37;50.51;100683.20;1744513;80;22033;-64
2022/12/30 11:46:59;;;;;;;20.12;12.90;;;;;;;9.37;50.57;100684.52;1773252;80;21027;-60
2022/12/30 11:49:50;;;;;;;18.12;13.50;;;;;;;9.39;50.28;100689.19;1768927;80;21039;-61
2022/12/30 11:52:25;;;;;;;19.17;14.70;;;;;;;9.34;50.21;100689.16;1742844;80;21102;-60
2022/12/30 11:55:00;;;;;;;19.57;14.18;;;;;;;9.22;50.61;100685.59;1746069;80;21054;-62
2022/12/30 11:57:31;;;;;;;18.43;13.77;;;;;;;9.15;50.86;100679.93;1748144;80;21227;-62
2022/12/30 12:02:38;;;;;;;20.08;14.05;;;;;;;9.06;51.55;100682.73;1776992;78;22698;-63
2022/12/30 12:05:29;;;;;;;17.70;13.70;;;;;;;9.18;51.27;100684.98;1748895;80;21053;-62
2022/12/30 12:08:24;;;;;;;19.10;13.18;;;;;;;9.15;51.06;100685.19;1749667;81;21149;-62
2022/12/30 12:12:45;;;;;;;19.50;13.48;;;;;;;8.90;51.73;100684.72;1797046;78;22078;-61
2022/12/30 12:15:38;;;;;;;20.43;13.62;;;;;;;8.98;51.61;100690.73;1771350;80;21567;-62
2022/12/30 12:18:35;;;;;;;21.40;14.00;;;;;;;8.94;51.58;100699.30;1741825;80;21357;-62
2022/12/30 12:21:19;;;;;;;19.70;13.78;;;;;;;8.85;51.88;100695.52;1742281;80;21043;-62
2022/12/30 12:24:26;;;;;;;20.40;13.53;;;;;;;8.86;51.94;100696.34;1766466;80;21099;-62
2022/12/30 12:27:04;;;;;;;17.95;13.08;;;;;;;8.74;52.11;100698.88;1763487;80;21815;-61
2022/12/30 12:33:16;;;;;;;19.37;14.50;;;;;;;8.58;52.90;100682.48;1794183;78;22553;-62
2022/12/30 12:36:17;;;;;;;20.32;12.60;;;;;;;8.77;52.64;100686.48;1767890;80;20881;-62
2022/12/30 12:39:04;;;;;;;20.75;13.00;;;;;;;8.83;52.67;100695.27;1759300;80;21171;-62
2022/12/30 12:41:42;;;;;;;16.97;12.45;;;;;;;8.83;52.66;100686.09;1755596;81;21111;-62
2022/12/30 12:44:35;;;;;;;18.60;13.32;;;;;;;8.82;52.47;100693.09;1756401;81;21013;-62
2022/12/30 12:47:30;;;;;;;18.98;13.28;;;;;;;8.79;52.60;100689.36;1756240;81;21094;-60
2022/12/30 12:50:14;;;;;;;19.70;13.03;;;;;;;8.78;52.68;100687.70;1774539;80;21074;-60
2022/12/30 12:53:06;;;;;;;17.35;13.13;;;;;;;8.76;53.20;100696.16;1756256;81;21264;-61
2022/12/30 12:56:13;;;;;;;19.12;13.38;;;;;;;8.67;53.81;100693.66;1776445;80;20967;-61
2022/12/30 12:59:34;;;;;;;21.27;14.33;;;;;;;8.59;54.26;100693.36;1756280;81;21066;-61